sensor_id;sensor_type;location;lat;lon;timestamp;pressure;altitude;pressure_sealevel;temperature;humidity
42001;BME280;27689;48.390;10.856;2023-03-14T00:01:26;94635.19;;;9.88;100.00
42001;BME280;27689;48.390;10.856;2023-03-14T00:04:09;94640.34;;;9.96;100.00
42001;BME280;27689;48.390;10.856;2023-03-14T00:06:53;94639.09;;;10.07;100.00
42001;BME280;27689;48.390;10.856;2023-03-14T00:09:37;94646.75;;;9.94;100.00
42001;BME280;27689;48.390;10.856;2023-03-14T00:12:21;94651.09;;;10.01;100.00
42001;BME280;27689;48.390;10.856;2023-03-14T00:15:06;94653.16;;;10.06;100.00
42001;BME280;27689;48.390;10.856;2023-03-14T00:17:51;94668.53;;;10.09;100.00
42001;BME280;27689;48.390;10.856;2023-03-14T00:20:35;94673.34;;;9.97;100.00
42001;BME280;27689;48.390;10.856;2023-03-14T00:23:19;94663.44;;;9.93;100.00
42001;BME280;27689;48.390;10.856;2023-03-14T00:26:05;94658.13;;;10.01;100.00
42001;BME280;27689;48.390;10.856;2023-03-14T00:28:53;94663.00;;;10.04;100.00
42001;BME280;27689;48.390;10.856;2023-03-14T00:31:37;94668.22;;;9.89;100.00
42001;BME280;27689;48.390;10.856;2023-03-14T00:34:23;94653.34;;;10.04;100.00
42001;BME280;27689;48.390;10.856;2023-03-14T00:37:07;94651.53;;;10.05;100.00
42001;BME280;27689;48.390;10.856;2023-03-14T00:39:51;94647.75;;;10.07;100.00
42001;BME280;27689;48.390;10.856;2023-03-14T00:42:35;94654.59;;;9.94;100.00
42001;BME280;27689;48.390;10.856;2023-03-14T00:45:19;94660.56;;;10.02;100.00
42001;BME280;27689;48.390;10.856;2023-03-14T00:48:03;94673.00;;;10.00;100.00
42001;BME280;27689;48.390;10.856;2023-03-14T00:50:47;94667.19;;;9.75;100.00
42001;BME280;27689;48.390;10.856;2023-03-14T00:53:31;94683.16;;;9.80;100.00
42001;BME280;27689;48.390;10.856;2023-03-14T00:56:15;94680.44;;;9.74;100.00
42001;BME280;27689;48.390;10.856;2023-03-14T00:58:59;94692.63;;;9.81;100.00
42001;BME280;27689;48.390;10.856;2023-03-14T01:01:43;94687.56;;;9.80;100.00
42001;BME280;27689;48.390;10.856;2023-03-14T01:04:27;94691.19;;;9.79;100.00
42001;BME280;27689;48.390;10.856;2023-03-14T01:07:11;94689.19;;;9.81;100.00
42001;BME280;27689;48.390;10.856;2023-03-14T01:09:55;94684.84;;;9.73;100.00
42001;BME280;27689;48.390;10.856;2023-03-14T01:12:39;94698.84;;;9.80;100.00
42001;BME280;27689;48.390;10.856;2023-03-14T01:15:24;94694.34;;;9.74;100.00
42001;BME280;27689;48.390;10.856;2023-03-14T01:18:08;94702.34;;;9.73;100.00
42001;BME280;27689;48.390;10.856;2023-03-14T01:20:52;94710.88;;;9.67;100.00
42001;BME280;27689;48.390;10.856;2023-03-14T01:23:36;94711.94;;;9.58;100.00
42001;BME280;27689;48.390;10.856;2023-03-14T01:26:22;94701.31;;;9.59;100.00
42001;BME280;27689;48.390;10.856;2023-03-14T01:29:06;94702.19;;;9.51;100.00
42001;BME280;27689;48.390;10.856;2023-03-14T01:31:50;94702.75;;;9.39;100.00
42001;BME280;27689;48.390;10.856;2023-03-14T01:34:34;94687.44;;;9.13;100.00
42001;BME280;27689;48.390;10.856;2023-03-14T01:37:18;94688.41;;;9.12;100.00
42001;BME280;27689;48.390;10.856;2023-03-14T01:40:02;94683.78;;;8.91;100.00
42001;BME280;27689;48.390;10.856;2023-03-14T01:42:55;94653.00;;;8.78;100.00
42001;BME280;27689;48.390;10.856;2023-03-14T01:51:31;94550.41;;;8.47;100.00
42001;BME280;27689;48.390;10.856;2023-03-14T01:54:22;94540.34;;;8.44;100.00
42001;BME280;27689;48.390;10.856;2023-03-14T01:57:17;94517.84;;;8.43;100.00
42001;BME280;27689;48.390;10.856;2023-03-14T02:03:05;94484.56;;;8.45;100.00
42001;BME280;27689;48.390;10.856;2023-03-14T02:05:51;94475.28;;;8.42;100.00
42001;BME280;27689;48.390;10.856;2023-03-14T02:08:39;94484.19;;;8.48;100.00
42001;BME280;27689;48.390;10.856;2023-03-14T02:11:28;94494.81;;;8.46;100.00
42001;BME280;27689;48.390;10.856;2023-03-14T02:14:22;94492.03;;;8.48;100.00
42001;BME280;27689;48.390;10.856;2023-03-14T02:17:08;94518.94;;;8.48;100.00
42001;BME280;27689;48.390;10.856;2023-03-14T02:20:21;94530.34;;;8.47;100.00
42001;BME280;27689;48.390;10.856;2023-03-14T02:23:09;94535.75;;;8.46;100.00
42001;BME280;27689;48.390;10.856;2023-03-14T02:26:01;94552.19;;;8.55;100.00
42001;BME280;27689;48.390;10.856;2023-03-14T02:28:46;94538.31;;;8.54;100.00
42001;BME280;27689;48.390;10.856;2023-03-14T02:31:30;94537.66;;;8.52;100.00
42001;BME280;27689;48.390;10.856;2023-03-14T02:34:14;94543.03;;;8.59;100.00
42001;BME280;27689;48.390;10.856;2023-03-14T02:36:58;94535.28;;;8.65;100.00
42001;BME280;27689;48.390;10.856;2023-03-14T02:39:44;94538.03;;;8.72;100.00
42001;BME280;27689;48.390;10.856;2023-03-14T02:42:28;94541.13;;;8.75;100.00
42001;BME280;27689;48.390;10.856;2023-03-14T02:48:04;94545.13;;;8.86;100.00
42001;BME280;27689;48.390;10.856;2023-03-14T02:50:53;94527.34;;;8.81;100.00
42001;BME280;27689;48.390;10.856;2023-03-14T02:53:38;94516.44;;;8.78;100.00
42001;BME280;27689;48.390;10.856;2023-03-14T02:56:22;94514.81;;;8.77;100.00
42001;BME280;27689;48.390;10.856;2023-03-14T02:59:07;94515.28;;;8.80;100.00
42001;BME280;27689;48.390;10.856;2023-03-14T03:01:50;94512.97;;;8.86;100.00
42001;BME280;27689;48.390;10.856;2023-03-14T03:04:34;94498.59;;;8.90;100.00
42001;BME280;27689;48.390;10.856;2023-03-14T03:07:18;94499.28;;;8.83;100.00
42001;BME280;27689;48.390;10.856;2023-03-14T03:10:03;94495.69;;;8.84;100.00
42001;BME280;27689;48.390;10.856;2023-03-14T03:12:47;94498.63;;;8.81;100.00
42001;BME280;27689;48.390;10.856;2023-03-14T03:15:32;94508.44;;;8.79;100.00
42001;BME280;27689;48.390;10.856;2023-03-14T03:18:15;94506.13;;;8.84;100.00
42001;BME280;27689;48.390;10.856;2023-03-14T03:21:03;94496.38;;;8.78;100.00
42001;BME280;27689;48.390;10.856;2023-03-14T03:23:48;94496.38;;;8.78;100.00
42001;BME280;27689;48.390;10.856;2023-03-14T03:26:34;94493.31;;;8.75;100.00
42001;BME280;27689;48.390;10.856;2023-03-14T03:29:18;94484.28;;;8.77;100.00
42001;BME280;27689;48.390;10.856;2023-03-14T03:32:02;94493.59;;;8.80;100.00
42001;BME280;27689;48.390;10.856;2023-03-14T03:34:45;94482.97;;;8.81;100.00
42001;BME280;27689;48.390;10.856;2023-03-14T03:37:30;94475.78;;;8.83;100.00
42001;BME280;27689;48.390;10.856;2023-03-14T03:40:14;94481.81;;;8.84;100.00
42001;BME280;27689;48.390;10.856;2023-03-14T03:42:58;94470.72;;;8.82;100.00
42001;BME280;27689;48.390;10.856;2023-03-14T03:45:42;94478.25;;;8.77;100.00
42001;BME280;27689;48.390;10.856;2023-03-14T03:48:26;94460.19;;;8.75;100.00
42001;BME280;27689;48.390;10.856;2023-03-14T03:51:12;94463.66;;;8.68;100.00
42001;BME280;27689;48.390;10.856;2023-03-14T03:53:57;94463.84;;;8.66;100.00
42001;BME280;27689;48.390;10.856;2023-03-14T03:56:41;94472.94;;;8.70;100.00
42001;BME280;27689;48.390;10.856;2023-03-14T03:59:25;94473.41;;;8.74;100.00
42001;BME280;27689;48.390;10.856;2023-03-14T04:02:09;94463.28;;;8.56;100.00
42001;BME280;27689;48.390;10.856;2023-03-14T04:04:52;94466.69;;;8.57;100.00
42001;BME280;27689;48.390;10.856;2023-03-14T04:07:36;94460.66;;;8.56;100.00
42001;BME280;27689;48.390;10.856;2023-03-14T04:10:20;94472.09;;;8.55;100.00
42001;BME280;27689;48.390;10.856;2023-03-14T04:13:04;94474.94;;;8.45;100.00
42001;BME280;27689;48.390;10.856;2023-03-14T04:15:48;94482.22;;;8.50;100.00
42001;BME280;27689;48.390;10.856;2023-03-14T04:18:32;94480.78;;;8.47;100.00
42001;BME280;27689;48.390;10.856;2023-03-14T04:21:16;94489.78;;;8.45;100.00
42001;BME280;27689;48.390;10.856;2023-03-14T04:24:00;94489.06;;;8.51;100.00
42001;BME280;27689;48.390;10.856;2023-03-14T04:26:44;94479.44;;;8.52;100.00
42001;BME280;27689;48.390;10.856;2023-03-14T04:29:28;94455.38;;;8.41;100.00
42001;BME280;27689;48.390;10.856;2023-03-14T04:32:12;94463.38;;;8.40;100.00
42001;BME280;27689;48.390;10.856;2023-03-14T04:34:56;94453.63;;;8.34;100.00
42001;BME280;27689;48.390;10.856;2023-03-14T04:37:40;94464.72;;;8.36;100.00
42001;BME280;27689;48.390;10.856;2023-03-14T04:40:25;94465.53;;;8.36;100.00
42001;BME280;27689;48.390;10.856;2023-03-14T04:43:10;94453.13;;;8.38;100.00
42001;BME280;27689;48.390;10.856;2023-03-14T04:45:55;94459.50;;;8.36;100.00
42001;BME280;27689;48.390;10.856;2023-03-14T04:48:39;94461.81;;;8.31;100.00
42001;BME280;27689;48.390;10.856;2023-03-14T04:51:23;94458.84;;;8.34;100.00
42001;BME280;27689;48.390;10.856;2023-03-14T04:54:11;94436.41;;;8.25;100.00
42001;BME280;27689;48.390;10.856;2023-03-14T04:56:55;94434.44;;;8.27;100.00
42001;BME280;27689;48.390;10.856;2023-03-14T04:59:39;94416.34;;;8.25;100.00
42001;BME280;27689;48.390;10.856;2023-03-14T05:02:22;94414.06;;;8.22;100.00
42001;BME280;27689;48.390;10.856;2023-03-14T05:05:06;94411.47;;;8.22;100.00
42001;BME280;27689;48.390;10.856;2023-03-14T05:07:50;94407.69;;;8.25;100.00
42001;BME280;27689;48.390;10.856;2023-03-14T05:10:34;94414.03;;;8.30;100.00
42001;BME280;27689;48.390;10.856;2023-03-14T05:13:18;94407.53;;;8.26;100.00
42001;BME280;27689;48.390;10.856;2023-03-14T05:16:07;94419.94;;;8.24;100.00
42001;BME280;27689;48.390;10.856;2023-03-14T05:18:52;94416.84;;;8.21;100.00
42001;BME280;27689;48.390;10.856;2023-03-14T05:21:36;94414.88;;;8.23;100.00
42001;BME280;27689;48.390;10.856;2023-03-14T05:24:20;94403.53;;;8.16;100.00
42001;BME280;27689;48.390;10.856;2023-03-14T05:27:04;94411.81;;;8.19;100.00
42001;BME280;27689;48.390;10.856;2023-03-14T05:29:48;94400.94;;;8.16;100.00
42001;BME280;27689;48.390;10.856;2023-03-14T05:32:32;94410.34;;;8.17;100.00
42001;BME280;27689;48.390;10.856;2023-03-14T05:35:16;94404.53;;;8.14;100.00
42001;BME280;27689;48.390;10.856;2023-03-14T05:38:00;94391.59;;;8.21;100.00
42001;BME280;27689;48.390;10.856;2023-03-14T05:40:45;94398.25;;;8.24;100.00
42001;BME280;27689;48.390;10.856;2023-03-14T05:43:29;94394.66;;;8.25;100.00
42001;BME280;27689;48.390;10.856;2023-03-14T05:46:13;94393.38;;;8.21;100.00
42001;BME280;27689;48.390;10.856;2023-03-14T05:48:58;94391.13;;;8.18;100.00
42001;BME280;27689;48.390;10.856;2023-03-14T05:51:43;94375.75;;;8.23;100.00
42001;BME280;27689;48.390;10.856;2023-03-14T05:54:26;94369.50;;;8.32;100.00
42001;BME280;27689;48.390;10.856;2023-03-14T05:57:10;94376.56;;;8.23;100.00
42001;BME280;27689;48.390;10.856;2023-03-14T05:59:55;94369.81;;;8.14;100.00
42001;BME280;27689;48.390;10.856;2023-03-14T06:02:38;94369.00;;;8.13;100.00
42001;BME280;27689;48.390;10.856;2023-03-14T06:05:23;94365.75;;;8.11;100.00
42001;BME280;27689;48.390;10.856;2023-03-14T06:08:07;94355.84;;;8.07;100.00
42001;BME280;27689;48.390;10.856;2023-03-14T06:10:51;94366.00;;;8.17;100.00
42001;BME280;27689;48.390;10.856;2023-03-14T06:13:36;94348.78;;;8.16;100.00
42001;BME280;27689;48.390;10.856;2023-03-14T06:16:20;94354.16;;;8.14;100.00
42001;BME280;27689;48.390;10.856;2023-03-14T06:19:03;94351.56;;;8.14;100.00
42001;BME280;27689;48.390;10.856;2023-03-14T06:21:47;94349.59;;;8.16;100.00
42001;BME280;27689;48.390;10.856;2023-03-14T06:24:31;94341.94;;;8.14;100.00
42001;BME280;27689;48.390;10.856;2023-03-14T06:27:15;94352.00;;;8.18;100.00
42001;BME280;27689;48.390;10.856;2023-03-14T06:29:59;94347.59;;;8.18;99.62
42001;BME280;27689;48.390;10.856;2023-03-14T06:32:43;94347.41;;;8.20;99.72
42001;BME280;27689;48.390;10.856;2023-03-14T06:35:27;94350.31;;;8.25;99.54
42001;BME280;27689;48.390;10.856;2023-03-14T06:38:11;94340.19;;;8.30;98.74
42001;BME280;27689;48.390;10.856;2023-03-14T06:40:55;94331.88;;;8.26;98.62
42001;BME280;27689;48.390;10.856;2023-03-14T06:43:39;94334.97;;;8.30;98.27
42001;BME280;27689;48.390;10.856;2023-03-14T06:46:23;94345.16;;;8.39;98.19
42001;BME280;27689;48.390;10.856;2023-03-14T06:49:06;94338.69;;;8.35;96.94
42001;BME280;27689;48.390;10.856;2023-03-14T06:51:50;94351.19;;;8.40;96.43
42001;BME280;27689;48.390;10.856;2023-03-14T06:54:34;94352.53;;;8.36;97.03
42001;BME280;27689;48.390;10.856;2023-03-14T06:57:18;94361.63;;;8.40;97.63
42001;BME280;27689;48.390;10.856;2023-03-14T07:00:04;94371.25;;;8.39;97.67
42001;BME280;27689;48.390;10.856;2023-03-14T07:02:48;94374.50;;;8.41;97.18
42001;BME280;27689;48.390;10.856;2023-03-14T07:05:32;94373.69;;;8.41;97.18
42001;BME280;27689;48.390;10.856;2023-03-14T07:08:16;94384.47;;;8.38;97.99
42001;BME280;27689;48.390;10.856;2023-03-14T07:11:00;94391.63;;;8.44;96.83
42001;BME280;27689;48.390;10.856;2023-03-14T07:13:44;94384.78;;;8.43;97.16
42001;BME280;27689;48.390;10.856;2023-03-14T07:16:28;94390.25;;;8.48;95.65
42001;BME280;27689;48.390;10.856;2023-03-14T07:19:15;94389.91;;;8.51;95.68
42001;BME280;27689;48.390;10.856;2023-03-14T07:21:59;94391.34;;;8.54;95.41
42001;BME280;27689;48.390;10.856;2023-03-14T07:24:43;94389.56;;;8.54;94.87
42001;BME280;27689;48.390;10.856;2023-03-14T07:27:27;94384.88;;;8.64;94.41
42001;BME280;27689;48.390;10.856;2023-03-14T07:30:12;94378.03;;;8.63;95.06
42001;BME280;27689;48.390;10.856;2023-03-14T07:32:55;94376.41;;;8.62;94.65
42001;BME280;27689;48.390;10.856;2023-03-14T07:35:39;94373.47;;;8.65;94.53
42001;BME280;27689;48.390;10.856;2023-03-14T07:38:23;94365.47;;;8.67;94.20
42001;BME280;27689;48.390;10.856;2023-03-14T07:41:07;94385.00;;;8.71;94.20
42001;BME280;27689;48.390;10.856;2023-03-14T07:43:51;94390.69;;;8.74;94.17
42001;BME280;27689;48.390;10.856;2023-03-14T07:46:36;94387.69;;;8.77;93.44
42001;BME280;27689;48.390;10.856;2023-03-14T07:49:20;94379.44;;;8.74;93.23
42001;BME280;27689;48.390;10.856;2023-03-14T07:52:04;94380.84;;;8.76;93.91
42001;BME280;27689;48.390;10.856;2023-03-14T07:54:48;94377.81;;;8.73;92.99
42001;BME280;27689;48.390;10.856;2023-03-14T07:57:32;94385.09;;;8.77;92.78
42001;BME280;27689;48.390;10.856;2023-03-14T08:00:16;94379.16;;;8.83;92.33
42001;BME280;27689;48.390;10.856;2023-03-14T08:03:00;94380.97;;;8.83;92.38
42001;BME280;27689;48.390;10.856;2023-03-14T08:05:47;94380.44;;;8.88;93.01
42001;BME280;27689;48.390;10.856;2023-03-14T08:08:32;94382.66;;;8.91;92.19
42001;BME280;27689;48.390;10.856;2023-03-14T08:11:16;94387.38;;;8.95;92.25
42001;BME280;27689;48.390;10.856;2023-03-14T08:14:00;94380.97;;;8.98;91.82
42001;BME280;27689;48.390;10.856;2023-03-14T08:16:44;94387.47;;;9.02;90.92
42001;BME280;27689;48.390;10.856;2023-03-14T08:19:27;94374.84;;;9.05;90.77
42001;BME280;27689;48.390;10.856;2023-03-14T08:22:11;94379.88;;;9.07;90.62
42001;BME280;27689;48.390;10.856;2023-03-14T08:24:55;94387.81;;;9.13;90.68
42001;BME280;27689;48.390;10.856;2023-03-14T08:27:39;94375.56;;;9.14;90.41
42001;BME280;27689;48.390;10.856;2023-03-14T08:30:24;94382.50;;;9.22;89.64
42001;BME280;27689;48.390;10.856;2023-03-14T08:33:08;94377.38;;;9.28;90.12
42001;BME280;27689;48.390;10.856;2023-03-14T08:35:54;94375.91;;;9.40;90.49
42001;BME280;27689;48.390;10.856;2023-03-14T08:38:38;94375.72;;;9.57;87.73
42001;BME280;27689;48.390;10.856;2023-03-14T08:41:22;94375.34;;;9.60;88.25
42001;BME280;27689;48.390;10.856;2023-03-14T08:44:10;94368.81;;;9.70;87.17
42001;BME280;27689;48.390;10.856;2023-03-14T08:46:55;94395.69;;;9.79;85.20
42001;BME280;27689;48.390;10.856;2023-03-14T08:49:39;94382.22;;;9.82;85.76
42001;BME280;27689;48.390;10.856;2023-03-14T08:52:24;94374.09;;;9.92;85.08
42001;BME280;27689;48.390;10.856;2023-03-14T08:55:09;94369.69;;;10.13;83.74
42001;BME280;27689;48.390;10.856;2023-03-14T08:57:53;94375.31;;;10.32;84.94
42001;BME280;27689;48.390;10.856;2023-03-14T09:00:37;94368.47;;;10.31;81.54
42001;BME280;27689;48.390;10.856;2023-03-14T09:03:21;94360.75;;;10.22;81.10
42001;BME280;27689;48.390;10.856;2023-03-14T09:06:09;94346.72;;;10.30;81.47
42001;BME280;27689;48.390;10.856;2023-03-14T09:08:53;94358.09;;;10.44;81.75
42001;BME280;27689;48.390;10.856;2023-03-14T09:11:37;94364.44;;;10.56;81.20
42001;BME280;27689;48.390;10.856;2023-03-14T09:14:21;94350.16;;;10.58;80.70
42001;BME280;27689;48.390;10.856;2023-03-14T09:17:04;94349.50;;;10.78;81.49
42001;BME280;27689;48.390;10.856;2023-03-14T09:19:49;94345.97;;;10.92;78.90
42001;BME280;27689;48.390;10.856;2023-03-14T09:22:33;94353.78;;;10.85;78.99
42001;BME280;27689;48.390;10.856;2023-03-14T09:25:18;94345.44;;;11.03;77.38
42001;BME280;27689;48.390;10.856;2023-03-14T09:28:03;94335.19;;;11.15;76.99
42001;BME280;27689;48.390;10.856;2023-03-14T09:30:47;94353.03;;;11.26;75.75
42001;BME280;27689;48.390;10.856;2023-03-14T09:33:31;94340.78;;;11.40;74.79
42001;BME280;27689;48.390;10.856;2023-03-14T09:36:15;94344.69;;;11.63;73.64
42001;BME280;27689;48.390;10.856;2023-03-14T09:38:59;94339.66;;;11.62;72.73
42001;BME280;27689;48.390;10.856;2023-03-14T09:41:44;94339.50;;;11.70;73.02
42001;BME280;27689;48.390;10.856;2023-03-14T09:44:37;94329.50;;;11.87;72.06
42001;BME280;27689;48.390;10.856;2023-03-14T09:47:23;94344.03;;;12.02;71.26
42001;BME280;27689;48.390;10.856;2023-03-14T09:50:13;94337.63;;;12.25;70.65
42001;BME280;27689;48.390;10.856;2023-03-14T09:53:07;94343.47;;;12.40;69.38
42001;BME280;27689;48.390;10.856;2023-03-14T09:55:56;94333.38;;;12.30;68.46
42001;BME280;27689;48.390;10.856;2023-03-14T09:58:44;94352.34;;;12.13;68.46
42001;BME280;27689;48.390;10.856;2023-03-14T10:01:31;94349.72;;;12.32;69.27
42001;BME280;27689;48.390;10.856;2023-03-14T10:04:17;94352.78;;;12.29;67.31
42001;BME280;27689;48.390;10.856;2023-03-14T10:07:04;94351.75;;;12.30;67.43
42001;BME280;27689;48.390;10.856;2023-03-14T10:09:50;94350.53;;;12.26;67.48
42001;BME280;27689;48.390;10.856;2023-03-14T10:12:36;94355.41;;;12.43;68.93
42001;BME280;27689;48.390;10.856;2023-03-14T10:15:30;94365.09;;;12.49;68.47
42001;BME280;27689;48.390;10.856;2023-03-14T10:18:15;94366.69;;;12.36;67.40
42001;BME280;27689;48.390;10.856;2023-03-14T10:21:17;94371.13;;;12.23;68.11
42001;BME280;27689;48.390;10.856;2023-03-14T10:24:21;94370.31;;;12.16;68.28
42001;BME280;27689;48.390;10.856;2023-03-14T10:27:18;94371.53;;;12.20;68.28
42001;BME280;27689;48.390;10.856;2023-03-14T10:30:05;94364.25;;;12.09;68.22
42001;BME280;27689;48.390;10.856;2023-03-14T10:32:50;94355.97;;;12.18;69.57
42001;BME280;27689;48.390;10.856;2023-03-14T10:35:34;94348.34;;;12.30;68.42
42001;BME280;27689;48.390;10.856;2023-03-14T10:38:19;94353.38;;;12.38;68.12
42001;BME280;27689;48.390;10.856;2023-03-14T10:41:16;94349.75;;;12.59;67.49
42001;BME280;27689;48.390;10.856;2023-03-14T10:44:01;94350.13;;;12.49;67.56
42001;BME280;27689;48.390;10.856;2023-03-14T10:46:45;94340.06;;;12.59;67.49
42001;BME280;27689;48.390;10.856;2023-03-14T10:49:35;94343.50;;;12.60;67.09
42001;BME280;27689;48.390;10.856;2023-03-14T10:52:24;94344.50;;;12.72;66.78
42001;BME280;27689;48.390;10.856;2023-03-14T10:55:11;94351.34;;;12.80;64.95
42001;BME280;27689;48.390;10.856;2023-03-14T10:57:55;94334.97;;;12.97;64.94
42001;BME280;27689;48.390;10.856;2023-03-14T11:00:38;94348.47;;;13.07;64.84
42001;BME280;27689;48.390;10.856;2023-03-14T11:03:24;94343.66;;;13.04;62.80
42001;BME280;27689;48.390;10.856;2023-03-14T11:09:05;94345.72;;;12.69;62.48
42001;BME280;27689;48.390;10.856;2023-03-14T11:12:02;94338.59;;;12.77;63.00
42001;BME280;27689;48.390;10.856;2023-03-14T11:15:05;94333.59;;;12.75;62.94
42001;BME280;27689;48.390;10.856;2023-03-14T11:21:24;94330.50;;;13.18;61.95
42001;BME280;27689;48.390;10.856;2023-03-14T11:27:00;94336.13;;;13.28;61.67
42001;BME280;27689;48.390;10.856;2023-03-14T11:36:08;94327.69;;;12.99;62.27
42001;BME280;27689;48.390;10.856;2023-03-14T11:38:55;94332.75;;;12.81;62.04
42001;BME280;27689;48.390;10.856;2023-03-14T11:41:42;94340.84;;;12.80;62.31
42001;BME280;27689;48.390;10.856;2023-03-14T11:44:35;94364.50;;;12.66;61.78
42001;BME280;27689;48.390;10.856;2023-03-14T11:47:32;94347.31;;;12.51;62.25
42001;BME280;27689;48.390;10.856;2023-03-14T11:50:23;94337.44;;;12.46;62.44
42001;BME280;27689;48.390;10.856;2023-03-14T11:53:40;94342.88;;;12.38;62.64
42001;BME280;27689;48.390;10.856;2023-03-14T11:56:31;94335.41;;;12.28;61.64
42001;BME280;27689;48.390;10.856;2023-03-14T11:59:24;94337.63;;;12.38;62.87
42001;BME280;27689;48.390;10.856;2023-03-14T12:11:10;94324.28;;;12.53;63.91
42001;BME280;27689;48.390;10.856;2023-03-14T12:13:56;94335.00;;;12.51;63.22
42001;BME280;27689;48.390;10.856;2023-03-14T12:16:40;94331.97;;;12.48;63.69
42001;BME280;27689;48.390;10.856;2023-03-14T12:19:26;94332.97;;;12.53;63.29
42001;BME280;27689;48.390;10.856;2023-03-14T12:22:27;94328.31;;;12.35;63.50
42001;BME280;27689;48.390;10.856;2023-03-14T12:30:40;94327.31;;;12.36;66.20
42001;BME280;27689;48.390;10.856;2023-03-14T12:33:29;94341.84;;;12.13;67.46
42001;BME280;27689;48.390;10.856;2023-03-14T12:42:20;94352.91;;;11.95;71.30
42001;BME280;27689;48.390;10.856;2023-03-14T12:48:22;94344.13;;;11.68;74.19
42001;BME280;27689;48.390;10.856;2023-03-14T12:51:19;94345.94;;;11.74;76.26
42001;BME280;27689;48.390;10.856;2023-03-14T13:00:00;94360.34;;;11.85;73.29
42001;BME280;27689;48.390;10.856;2023-03-14T13:02:49;94368.06;;;11.58;72.73
42001;BME280;27689;48.390;10.856;2023-03-14T13:05:34;94378.13;;;11.48;71.58
42001;BME280;27689;48.390;10.856;2023-03-14T13:08:39;94378.97;;;11.55;73.32
42001;BME280;27689;48.390;10.856;2023-03-14T13:11:23;94389.84;;;11.52;75.42
42001;BME280;27689;48.390;10.856;2023-03-14T13:14:10;94390.56;;;11.33;77.01
42001;BME280;27689;48.390;10.856;2023-03-14T13:16:54;94397.91;;;11.16;79.98
42001;BME280;27689;48.390;10.856;2023-03-14T13:19:38;94400.72;;;11.15;79.27
42001;BME280;27689;48.390;10.856;2023-03-14T13:22:30;94419.69;;;10.89;82.20
42001;BME280;27689;48.390;10.856;2023-03-14T13:25:15;94436.13;;;10.76;80.48
42001;BME280;27689;48.390;10.856;2023-03-14T13:28:00;94442.44;;;10.60;83.33
42001;BME280;27689;48.390;10.856;2023-03-14T13:30:47;94458.44;;;10.30;84.88
42001;BME280;27689;48.390;10.856;2023-03-14T13:33:32;94475.78;;;10.16;85.53
42001;BME280;27689;48.390;10.856;2023-03-14T13:36:21;94472.13;;;9.81;88.24
42001;BME280;27689;48.390;10.856;2023-03-14T13:39:26;94483.34;;;9.75;91.23
42001;BME280;27689;48.390;10.856;2023-03-14T13:42:14;94482.53;;;9.60;90.22
42001;BME280;27689;48.390;10.856;2023-03-14T13:44:59;94498.38;;;9.43;90.48
42001;BME280;27689;48.390;10.856;2023-03-14T13:47:43;94496.66;;;9.50;91.64
42001;BME280;27689;48.390;10.856;2023-03-14T13:50:29;94496.47;;;9.37;92.02
42001;BME280;27689;48.390;10.856;2023-03-14T13:53:13;94504.97;;;9.39;92.92
42001;BME280;27689;48.390;10.856;2023-03-14T13:56:01;94517.97;;;9.47;94.33
42001;BME280;27689;48.390;10.856;2023-03-14T13:58:46;94520.63;;;9.39;96.62
42001;BME280;27689;48.390;10.856;2023-03-14T14:01:34;94515.56;;;9.23;96.26
42001;BME280;27689;48.390;10.856;2023-03-14T14:04:21;94522.59;;;9.23;98.64
42001;BME280;27689;48.390;10.856;2023-03-14T14:07:09;94537.66;;;8.98;100.00
42001;BME280;27689;48.390;10.856;2023-03-14T14:09:55;94552.91;;;9.09;99.07
42001;BME280;27689;48.390;10.856;2023-03-14T14:12:47;94572.75;;;9.03;99.20
42001;BME280;27689;48.390;10.856;2023-03-14T14:15:41;94575.56;;;8.94;100.00
42001;BME280;27689;48.390;10.856;2023-03-14T14:18:27;94592.97;;;8.78;100.00
42001;BME280;27689;48.390;10.856;2023-03-14T14:21:13;94610.34;;;8.63;100.00
42001;BME280;27689;48.390;10.856;2023-03-14T14:23:57;94625.41;;;8.53;100.00
42001;BME280;27689;48.390;10.856;2023-03-14T14:26:52;94638.31;;;8.46;100.00
42001;BME280;27689;48.390;10.856;2023-03-14T14:29:37;94651.03;;;8.58;100.00
42001;BME280;27689;48.390;10.856;2023-03-14T14:32:21;94647.78;;;8.47;100.00
42001;BME280;27689;48.390;10.856;2023-03-14T14:35:06;94661.06;;;8.30;100.00
42001;BME280;27689;48.390;10.856;2023-03-14T14:37:51;94652.06;;;8.40;100.00
42001;BME280;27689;48.390;10.856;2023-03-14T14:40:44;94678.66;;;8.36;100.00
42001;BME280;27689;48.390;10.856;2023-03-14T14:43:30;94669.53;;;8.40;100.00
42001;BME280;27689;48.390;10.856;2023-03-14T14:46:18;94667.31;;;8.12;100.00
42001;BME280;27689;48.390;10.856;2023-03-14T14:49:06;94670.03;;;8.27;100.00
42001;BME280;27689;48.390;10.856;2023-03-14T14:52:00;94676.56;;;8.23;100.00
42001;BME280;27689;48.390;10.856;2023-03-14T14:54:58;94693.34;;;8.37;100.00
42001;BME280;27689;48.390;10.856;2023-03-14T14:57:52;94701.81;;;8.39;100.00
42001;BME280;27689;48.390;10.856;2023-03-14T15:00:39;94701.22;;;8.12;99.09
42001;BME280;27689;48.390;10.856;2023-03-14T15:03:30;94714.88;;;8.23;99.08
42001;BME280;27689;48.390;10.856;2023-03-14T15:06:15;94717.97;;;8.18;98.47
42001;BME280;27689;48.390;10.856;2023-03-14T15:08:59;94725.63;;;8.20;98.33
42001;BME280;27689;48.390;10.856;2023-03-14T15:11:43;94742.75;;;8.22;97.98
42001;BME280;27689;48.390;10.856;2023-03-14T15:14:28;94747.47;;;8.27;96.86
42001;BME280;27689;48.390;10.856;2023-03-14T15:17:12;94737.69;;;8.29;96.17
42001;BME280;27689;48.390;10.856;2023-03-14T15:19:56;94752.03;;;8.33;89.92
42001;BME280;27689;48.390;10.856;2023-03-14T15:22:41;94775.34;;;8.34;85.37
42001;BME280;27689;48.390;10.856;2023-03-14T15:25:25;94777.47;;;8.31;82.92
42001;BME280;27689;48.390;10.856;2023-03-14T15:31:03;94781.22;;;8.28;78.20